createdAt,value
2018-09-21T00:00:39.842Z,21.13
2018-09-21T00:01:39.517Z,21.10
2018-09-21T00:03:33.109Z,21.16
2018-09-21T00:04:32.877Z,21.07
2018-09-21T00:06:26.212Z,21.16
2018-09-21T00:07:25.868Z,21.11
2018-09-21T00:09:19.106Z,21.07
2018-09-21T00:10:18.764Z,21.07
2018-09-21T00:12:12.403Z,21.11
2018-09-21T00:13:12.134Z,21.07
2018-09-21T00:15:05.786Z,21.10
2018-09-21T00:16:05.497Z,21.04
2018-09-21T00:17:58.899Z,21.03
2018-09-21T00:18:58.864Z,21.04
2018-09-21T00:20:52.503Z,21.03
2018-09-21T00:21:52.227Z,21.03
2018-09-21T00:23:45.925Z,21.03
2018-09-21T00:24:45.123Z,21.00
2018-09-21T00:26:38.706Z,20.97
2018-09-21T00:27:38.505Z,20.98
2018-09-21T00:29:32.203Z,20.88
2018-09-21T00:30:31.917Z,20.93
2018-09-21T00:32:25.616Z,20.88
2018-09-21T00:33:24.764Z,20.95
2018-09-21T00:35:18.190Z,20.92
2018-09-21T00:36:18.412Z,20.92
2018-09-21T00:38:12.803Z,20.90
2018-09-21T00:39:12.858Z,20.88
2018-09-21T00:41:07.186Z,20.86
2018-09-21T00:42:07.032Z,20.86
2018-09-21T00:44:00.042Z,20.90
2018-09-21T00:44:59.748Z,20.95
2018-09-21T00:46:54.032Z,20.92
2018-09-21T00:47:53.670Z,20.90
2018-09-21T00:49:46.793Z,20.83
2018-09-21T00:50:46.536Z,20.86
2018-09-21T00:52:40.294Z,20.80
2018-09-21T00:53:39.921Z,20.88
2018-09-21T00:55:34.605Z,20.85
2018-09-21T00:56:33.312Z,20.79
2018-09-21T00:58:27.522Z,20.80
2018-09-21T00:59:26.707Z,20.80
2018-09-21T01:01:20.939Z,20.77
2018-09-21T01:02:20.621Z,20.73
2018-09-21T01:04:15.341Z,20.67
2018-09-21T01:05:15.035Z,20.71
2018-09-21T01:07:19.927Z,20.68
2018-09-21T01:08:09.361Z,20.73
2018-09-21T01:10:03.355Z,20.61
2018-09-21T01:11:02.741Z,20.61
2018-09-21T01:12:55.935Z,20.58
2018-09-21T01:13:55.646Z,20.53
2018-09-21T01:15:48.808Z,20.53
2018-09-21T01:16:48.552Z,20.53
2018-09-21T01:18:42.230Z,20.53
2018-09-21T01:19:42.188Z,20.56
2018-09-21T01:21:35.523Z,20.46
2018-09-21T01:22:35.242Z,20.48
2018-09-21T01:24:28.904Z,20.49
2018-09-21T01:25:28.609Z,20.55
2018-09-21T01:27:22.304Z,20.55
2018-09-21T01:28:21.980Z,20.52
2018-09-21T01:30:15.401Z,20.52
2018-09-21T01:31:15.363Z,20.52
2018-09-21T01:33:09.015Z,20.53
2018-09-21T01:34:08.260Z,20.41
2018-09-21T01:36:01.924Z,20.42
2018-09-21T01:37:01.413Z,20.41
2018-09-21T01:38:55.781Z,20.42
2018-09-21T01:39:54.777Z,20.37
2018-09-21T01:41:49.063Z,20.37
2018-09-21T01:42:48.172Z,20.37
2018-09-21T01:44:41.796Z,20.30
2018-09-21T01:45:42.333Z,20.30
2018-09-21T01:47:35.686Z,20.30
2018-09-21T01:48:34.903Z,20.27
2018-09-21T01:50:28.611Z,20.32
2018-09-21T01:51:28.553Z,20.30
2018-09-21T01:53:21.965Z,20.30
2018-09-21T01:54:21.655Z,20.42
2018-09-21T01:56:15.318Z,20.32
2018-09-21T01:57:15.263Z,20.39
2018-09-21T01:59:09.038Z,20.36
2018-09-21T02:00:08.876Z,20.33
2018-09-21T02:02:01.301Z,20.39
2018-09-21T02:03:01.943Z,20.37
2018-09-21T02:04:54.852Z,20.34
2018-09-21T02:05:54.647Z,20.44
2018-09-21T02:07:47.550Z,20.52
2018-09-21T02:08:47.527Z,20.44
2018-09-21T02:10:40.913Z,20.44
2018-09-21T02:11:40.891Z,20.42
2018-09-21T02:13:34.478Z,20.46
2018-09-21T02:14:34.286Z,20.46
2018-09-21T02:16:27.815Z,20.44
2018-09-21T02:17:27.631Z,20.44
2018-09-21T02:19:21.338Z,20.32
2018-09-21T02:20:21.020Z,20.30
2018-09-21T02:22:14.528Z,20.29
2018-09-21T02:23:14.395Z,20.32
2018-09-21T02:25:07.415Z,20.30
2018-09-21T02:26:07.271Z,20.23
2018-09-21T02:28:00.809Z,20.17
2018-09-21T02:29:00.648Z,20.29
2018-09-21T02:30:53.684Z,20.22
2018-09-21T02:31:53.565Z,20.17
2018-09-21T02:33:46.428Z,20.26
2018-09-21T02:34:46.409Z,20.17
2018-09-21T02:36:39.472Z,20.17
2018-09-21T02:37:39.318Z,20.14
2018-09-21T02:39:32.673Z,20.15
2018-09-21T02:40:32.640Z,20.08
2018-09-21T02:42:25.591Z,20.15
2018-09-21T02:43:25.551Z,20.12
2018-09-21T02:45:18.943Z,20.14
2018-09-21T02:46:18.907Z,20.11
2018-09-21T02:48:12.432Z,20.05
2018-09-21T02:49:12.269Z,20.05
2018-09-21T02:51:05.305Z,20.07
2018-09-21T02:52:05.142Z,20.11
2018-09-21T02:53:58.041Z,20.07
2018-09-21T02:54:58.033Z,20.08
2018-09-21T02:56:51.427Z,20.14
2018-09-21T02:57:51.413Z,20.05
2018-09-21T02:59:44.922Z,20.11
2018-09-21T03:00:44.975Z,20.09
2018-09-21T03:02:37.745Z,20.05
2018-09-21T03:03:37.677Z,20.11
2018-09-21T03:05:31.069Z,20.00
2018-09-21T03:06:31.086Z,20.07
2018-09-21T03:08:24.132Z,19.99
2018-09-21T03:09:23.925Z,20.02
2018-09-21T03:11:16.808Z,19.99
2018-09-21T03:12:16.799Z,19.97
2018-09-21T03:14:10.372Z,19.96
2018-09-21T03:15:10.171Z,19.99
2018-09-21T03:17:03.574Z,19.96
2018-09-21T03:18:03.539Z,19.94
2018-09-21T03:19:56.427Z,19.97
2018-09-21T03:20:56.409Z,19.96
2018-09-21T03:22:49.802Z,19.96
2018-09-21T03:23:49.785Z,19.96
2018-09-21T03:25:42.722Z,19.89
2018-09-21T03:26:42.663Z,19.89
2018-09-21T03:28:36.173Z,19.94
2018-09-21T03:29:36.022Z,19.92
2018-09-21T03:31:29.422Z,19.89
2018-09-21T03:32:29.413Z,19.87
2018-09-21T03:34:22.450Z,19.82
2018-09-21T03:35:22.324Z,19.90
2018-09-21T03:37:15.197Z,19.87
2018-09-21T03:38:15.167Z,19.87
2018-09-21T03:40:08.749Z,19.79
2018-09-21T03:41:08.526Z,19.79
2018-09-21T03:43:01.449Z,19.86
2018-09-21T03:44:01.408Z,19.79
2018-09-21T03:45:54.497Z,19.87
2018-09-21T03:46:54.295Z,19.82
2018-09-21T03:48:47.682Z,19.86
2018-09-21T03:49:47.688Z,19.82
2018-09-21T03:51:41.254Z,19.89
2018-09-21T03:52:41.040Z,19.89
2018-09-21T03:54:33.950Z,19.93
2018-09-21T03:55:33.916Z,19.97
2018-09-21T03:57:27.300Z,20.02
2018-09-21T03:58:27.275Z,19.94
2018-09-21T04:00:20.900Z,20.08
2018-09-21T04:01:20.649Z,20.11
2018-09-21T04:03:14.266Z,20.18
2018-09-21T04:04:14.066Z,20.23
2018-09-21T04:06:07.171Z,20.30
2018-09-21T04:07:06.916Z,20.32
2018-09-21T04:09:00.641Z,20.30
2018-09-21T04:10:00.329Z,20.37
2018-09-21T04:11:54.015Z,20.42
2018-09-21T04:12:53.647Z,20.41
2018-09-21T04:14:47.650Z,20.46
2018-09-21T04:15:47.020Z,20.60
2018-09-21T04:17:40.420Z,20.56
2018-09-21T04:18:40.415Z,20.64
2018-09-21T04:20:33.880Z,20.71
2018-09-21T04:21:33.278Z,20.74
2018-09-21T04:23:27.005Z,20.82
2018-09-21T04:24:26.437Z,20.89
2018-09-21T04:26:20.100Z,21.04
2018-09-21T04:27:19.815Z,20.98
2018-09-21T04:29:13.464Z,21.25
2018-09-21T04:30:13.189Z,21.26
2018-09-21T04:32:06.923Z,21.22
2018-09-21T04:33:06.854Z,21.25
2018-09-21T04:34:59.585Z,21.40
2018-09-21T04:35:59.455Z,21.40
2018-09-21T04:37:52.830Z,21.43
2018-09-21T04:38:53.034Z,21.62
2018-09-21T04:40:46.789Z,21.69
2018-09-21T04:41:46.757Z,21.62
2018-09-21T04:43:39.829Z,21.63
2018-09-21T04:44:39.652Z,21.58
2018-09-21T04:46:32.660Z,21.62
2018-09-21T04:47:32.519Z,21.60
2018-09-21T04:49:25.943Z,21.74
2018-09-21T04:50:25.903Z,21.67
2018-09-21T04:52:19.595Z,21.69
2018-09-21T04:53:19.286Z,21.69
2018-09-21T04:55:12.797Z,21.66
2018-09-21T04:56:12.692Z,21.73
2018-09-21T04:58:06.642Z,21.77
2018-09-21T04:59:06.577Z,21.77
2018-09-21T05:00:59.550Z,21.80
2018-09-21T05:01:59.511Z,21.80
2018-09-21T05:03:52.915Z,21.75
2018-09-21T05:04:52.895Z,21.78
2018-09-21T05:06:45.961Z,21.84
2018-09-21T05:07:45.823Z,21.90
2018-09-21T05:09:38.768Z,21.88
2018-09-21T05:10:38.669Z,21.91
2018-09-21T05:12:32.194Z,21.94
2018-09-21T05:13:32.070Z,21.96
2018-09-21T05:15:25.443Z,22.03
2018-09-21T05:16:25.446Z,21.98
2018-09-21T05:18:18.837Z,22.06
2018-09-21T05:19:18.806Z,22.04
2018-09-21T05:21:12.251Z,22.03
2018-09-21T05:22:12.198Z,22.01
2018-09-21T05:24:05.621Z,22.16
2018-09-21T05:25:05.564Z,22.16
2018-09-21T05:26:59.547Z,22.23
2018-09-21T05:27:59.526Z,22.19
2018-09-21T05:29:52.414Z,22.27
2018-09-21T05:30:52.403Z,22.27
2018-09-21T05:32:45.366Z,22.25
2018-09-21T05:33:45.268Z,22.22
2018-09-21T05:35:38.759Z,22.28
2018-09-21T05:36:38.663Z,22.22
2018-09-21T05:38:32.076Z,22.22
2018-09-21T05:39:32.027Z,22.21
2018-09-21T05:41:26.924Z,22.31
2018-09-21T05:42:26.707Z,22.30
2018-09-21T05:44:19.690Z,22.27
2018-09-21T05:45:19.313Z,22.28
2018-09-21T05:47:13.349Z,22.31
2018-09-21T05:48:13.244Z,22.36
2018-09-21T05:50:06.257Z,22.40
2018-09-21T05:51:06.122Z,22.41
2018-09-21T05:52:59.254Z,22.43
2018-09-21T05:53:59.023Z,22.34
2018-09-21T05:55:51.917Z,22.46
2018-09-21T05:56:51.919Z,22.34
2018-09-21T05:58:46.044Z,22.33
2018-09-21T05:59:45.265Z,22.41
2018-09-21T06:01:39.237Z,22.36
2018-09-21T06:02:38.651Z,22.33
2018-09-21T06:04:32.065Z,22.34
2018-09-21T06:05:32.017Z,22.27
2018-09-21T06:07:25.045Z,22.30
2018-09-21T06:08:24.897Z,22.25
2018-09-21T06:10:17.923Z,22.36
2018-09-21T06:11:17.785Z,22.30
2018-09-21T06:13:11.176Z,22.31
2018-09-21T06:14:11.179Z,22.28
2018-09-21T06:16:04.079Z,22.28
2018-09-21T06:17:04.060Z,22.28
2018-09-21T06:18:56.958Z,22.27
2018-09-21T06:19:56.942Z,22.37
2018-09-21T06:21:49.833Z,22.38
2018-09-21T06:22:49.885Z,22.40
2018-09-21T06:24:43.343Z,22.44
2018-09-21T06:25:43.194Z,22.43
2018-09-21T06:27:36.200Z,22.48
2018-09-21T06:28:37.127Z,22.40
2018-09-21T06:30:29.104Z,22.49
2018-09-21T06:31:29.082Z,22.46
2018-09-21T06:33:22.483Z,22.55
2018-09-21T06:34:22.442Z,22.51
2018-09-21T06:36:15.839Z,22.56
2018-09-21T06:37:15.820Z,22.55
2018-09-21T06:39:08.745Z,22.49
2018-09-21T06:40:08.697Z,22.56
2018-09-21T06:42:02.121Z,22.62
2018-09-21T06:43:02.073Z,22.58
2018-09-21T06:44:55.118Z,22.71
2018-09-21T06:45:54.967Z,22.68
2018-09-21T06:47:48.461Z,22.67
2018-09-21T06:48:48.335Z,22.71
2018-09-21T06:50:41.364Z,22.64
2018-09-21T06:51:41.234Z,22.62
2018-09-21T06:53:34.645Z,22.59
2018-09-21T06:54:34.616Z,22.66
2018-09-21T06:56:28.169Z,22.58
2018-09-21T06:57:27.998Z,22.59
2018-09-21T06:59:21.972Z,22.56
2018-09-21T07:00:21.394Z,22.58
2018-09-21T07:02:15.008Z,22.58
2018-09-21T07:03:14.758Z,22.58
2018-09-21T07:05:08.231Z,22.51
2018-09-21T07:06:07.647Z,22.56
2018-09-21T07:08:00.833Z,22.52
2018-09-21T07:09:00.686Z,22.51
2018-09-21T07:10:53.555Z,22.51
2018-09-21T07:11:53.428Z,22.56
2018-09-21T07:13:46.920Z,22.53
2018-09-21T07:14:46.806Z,22.53
2018-09-21T07:16:39.834Z,22.58
2018-09-21T07:17:39.670Z,22.52
2018-09-21T07:19:33.639Z,22.55
2018-09-21T07:20:33.044Z,22.51
2018-09-21T07:22:26.447Z,22.56
2018-09-21T07:23:26.421Z,22.56
2018-09-21T07:25:19.824Z,22.52
2018-09-21T07:26:19.813Z,22.53
2018-09-21T07:28:13.300Z,22.64
2018-09-21T07:29:13.184Z,22.61
2018-09-21T07:31:06.191Z,22.56
2018-09-21T07:32:06.083Z,22.61
2018-09-21T07:33:58.982Z,22.62
2018-09-21T07:34:58.961Z,22.70
2018-09-21T07:36:52.606Z,22.66
2018-09-21T07:37:52.339Z,22.67
2018-09-21T07:39:45.890Z,22.78
2018-09-21T07:40:45.766Z,22.78
2018-09-21T07:42:38.718Z,22.83
2018-09-21T07:43:38.607Z,22.83
2018-09-21T07:45:32.009Z,22.83
2018-09-21T07:46:31.978Z,22.83
2018-09-21T07:48:24.884Z,22.76
2018-09-21T07:49:24.862Z,22.88
2018-09-21T07:51:18.417Z,22.85
2018-09-21T07:52:18.242Z,22.77
2018-09-21T07:54:12.381Z,22.74
2018-09-21T07:55:12.235Z,22.71
2018-09-21T07:57:05.175Z,22.73
2018-09-21T07:58:05.142Z,22.68
2018-09-21T07:59:58.054Z,22.66
2018-09-21T08:00:58.033Z,22.66
2018-09-21T08:02:53.098Z,22.62
2018-09-21T08:03:51.984Z,22.77
2018-09-21T08:05:45.055Z,22.67
2018-09-21T08:06:44.850Z,22.74
2018-09-21T08:08:38.259Z,22.70
2018-09-21T08:09:38.242Z,22.62
2018-09-21T08:11:31.282Z,22.66
2018-09-21T08:12:31.117Z,22.66
2018-09-21T08:14:24.165Z,22.67
2018-09-21T08:15:24.023Z,22.55
2018-09-21T08:17:17.697Z,22.61
2018-09-21T08:18:17.953Z,22.66
2018-09-21T08:20:10.778Z,22.68
2018-09-21T08:21:10.779Z,22.67
2018-09-21T08:23:04.154Z,22.77
2018-09-21T08:24:04.135Z,22.74
2018-09-21T08:25:57.680Z,22.83
2018-09-21T08:26:57.519Z,22.96
2018-09-21T08:28:51.488Z,23.10
2018-09-21T08:29:50.403Z,23.10
2018-09-21T08:31:43.313Z,23.17
2018-09-21T08:32:43.293Z,23.25
2018-09-21T08:34:36.774Z,23.36
2018-09-21T08:35:36.702Z,23.41
2018-09-21T08:37:30.081Z,23.44
2018-09-21T08:38:30.043Z,23.54
2018-09-21T08:40:23.049Z,23.48
2018-09-21T08:41:22.925Z,23.54
2018-09-21T08:43:16.326Z,23.49
2018-09-21T08:44:16.318Z,23.51
2018-09-21T08:46:09.313Z,23.45
2018-09-21T08:47:09.201Z,23.46
2018-09-21T08:49:02.758Z,23.42
2018-09-21T08:50:02.576Z,23.45
2018-09-21T08:51:56.090Z,23.39
2018-09-21T08:52:55.996Z,23.39
2018-09-21T08:54:49.540Z,23.39
2018-09-21T08:55:49.345Z,23.39
2018-09-21T08:57:42.806Z,23.37
2018-09-21T08:58:42.722Z,23.44
2018-09-21T09:00:36.253Z,23.41
2018-09-21T09:01:36.114Z,23.36
2018-09-21T09:03:29.590Z,23.36
2018-09-21T09:04:29.473Z,23.39
2018-09-21T09:06:22.540Z,23.36
2018-09-21T09:07:22.365Z,23.37
2018-09-21T09:09:15.278Z,23.23
2018-09-21T09:10:15.277Z,23.23
2018-09-21T09:12:08.273Z,23.26
2018-09-21T09:13:08.135Z,23.28
2018-09-21T09:15:01.505Z,23.28
2018-09-21T09:16:02.101Z,23.31
2018-09-21T09:17:55.019Z,23.28
2018-09-21T09:18:55.431Z,23.29
2018-09-21T09:20:50.002Z,23.23
2018-09-21T09:21:48.271Z,23.29
2018-09-21T09:23:41.668Z,23.33
2018-09-21T09:25:53.907Z,23.23
2018-09-21T09:26:53.900Z,23.18
2018-09-21T09:28:46.935Z,23.23
2018-09-21T09:29:46.796Z,23.22
2018-09-21T09:31:40.335Z,22.89
2018-09-21T09:32:40.164Z,22.89
2018-09-21T09:34:33.683Z,22.56
2018-09-21T09:35:33.542Z,22.43
2018-09-21T09:37:26.943Z,22.01
2018-09-21T09:38:26.914Z,21.80
2018-09-21T09:40:19.852Z,21.41
2018-09-21T09:41:19.897Z,21.10
2018-09-21T09:43:12.952Z,20.61
2018-09-21T09:44:12.699Z,20.27
2018-09-21T09:46:05.706Z,19.84
2018-09-21T09:47:05.581Z,19.72
2018-09-21T09:48:59.119Z,19.23
2018-09-21T09:49:58.945Z,19.04
2018-09-21T09:51:52.461Z,18.67
2018-09-21T09:52:52.325Z,18.52
2018-09-21T09:54:45.845Z,18.52
2018-09-21T09:55:45.694Z,18.51
2018-09-21T09:57:39.090Z,18.45
2018-09-21T09:58:39.639Z,18.24
2018-09-21T10:00:32.086Z,18.24
2018-09-21T10:01:31.948Z,18.21
2018-09-21T10:03:25.368Z,18.31
2018-09-21T10:04:25.343Z,18.31
2018-09-21T10:06:18.524Z,18.41
2018-09-21T10:07:18.515Z,18.36
2018-09-21T10:09:11.889Z,18.31
2018-09-21T10:10:11.927Z,18.38
2018-09-21T10:12:04.782Z,18.28
2018-09-21T10:13:04.748Z,18.26
2018-09-21T10:14:57.652Z,18.26
2018-09-21T10:15:57.634Z,18.21
2018-09-21T10:17:51.599Z,18.17
2018-09-21T10:18:50.995Z,18.05
2018-09-21T10:20:44.407Z,17.96
2018-09-21T10:21:44.372Z,17.91
2018-09-21T10:23:37.786Z,17.90
2018-09-21T10:24:37.770Z,17.91
2018-09-21T10:26:30.652Z,17.94
2018-09-21T10:27:30.836Z,18.03
2018-09-21T10:29:24.031Z,18.01
2018-09-21T10:30:24.004Z,17.96
2018-09-21T10:32:16.897Z,17.93
2018-09-21T10:33:16.892Z,17.96
2018-09-21T10:35:09.783Z,18.03
2018-09-21T10:36:09.757Z,18.09
2018-09-21T10:38:03.139Z,18.06
2018-09-21T10:39:03.156Z,18.11
2018-09-21T10:40:56.519Z,18.17
2018-09-21T10:41:56.490Z,18.30
2018-09-21T10:43:49.881Z,18.23
2018-09-21T10:44:49.872Z,18.28
2018-09-21T10:46:43.049Z,18.26
2018-09-21T10:47:43.027Z,18.20
2018-09-21T10:49:35.943Z,18.23
2018-09-21T10:50:35.901Z,18.17
2018-09-21T10:52:29.311Z,18.27
2018-09-21T10:53:29.272Z,18.41
2018-09-21T10:55:22.677Z,18.41
2018-09-21T10:56:22.650Z,18.43
2018-09-21T10:58:15.550Z,18.48
2018-09-21T10:59:15.531Z,18.51
2018-09-21T11:01:08.729Z,18.52
2018-09-21T11:02:08.694Z,18.46
2018-09-21T11:04:01.592Z,18.57
2018-09-21T11:05:01.578Z,18.51
2018-09-21T11:06:54.969Z,18.54
2018-09-21T11:07:54.935Z,18.46
2018-09-21T11:09:48.332Z,18.45
2018-09-21T11:10:48.314Z,18.41
2018-09-21T11:12:42.554Z,18.51
2018-09-21T11:13:42.526Z,18.51
2018-09-21T11:15:35.437Z,18.57
2018-09-21T11:16:35.407Z,18.56
2018-09-21T11:18:28.804Z,18.60
2018-09-21T11:19:28.773Z,18.60
2018-09-21T11:21:22.193Z,18.56
2018-09-21T11:22:22.139Z,18.64
2018-09-21T11:24:15.536Z,18.68
2018-09-21T11:25:15.518Z,18.70
2018-09-21T11:27:09.004Z,18.68
2018-09-21T11:28:08.902Z,18.71
2018-09-21T11:30:02.294Z,18.97
2018-09-21T11:31:02.256Z,18.89
2018-09-21T11:32:55.665Z,18.93
2018-09-21T11:33:55.626Z,18.89
2018-09-21T11:35:49.094Z,18.97
2018-09-21T11:36:48.511Z,18.89
2018-09-21T11:38:41.404Z,18.97
2018-09-21T11:39:41.376Z,18.98
2018-09-21T11:41:34.768Z,19.00
2018-09-21T11:42:34.742Z,19.07
2018-09-21T11:44:27.716Z,19.04
2018-09-21T11:45:27.637Z,19.13
2018-09-21T11:47:20.650Z,19.23
2018-09-21T11:48:20.495Z,19.19
2018-09-21T11:50:13.443Z,19.37
2018-09-21T11:51:13.378Z,19.32
2018-09-21T11:53:07.825Z,19.44
2018-09-21T11:54:07.771Z,19.49
2018-09-21T11:56:00.666Z,19.56
2018-09-21T11:57:00.635Z,19.56
2018-09-21T11:58:54.023Z,19.78
2018-09-21T11:59:54.002Z,19.77
2018-09-21T12:01:47.443Z,19.96
2018-09-21T12:02:47.405Z,19.97
2018-09-21T12:04:40.804Z,20.09
2018-09-21T12:05:40.771Z,20.11
2018-09-21T12:07:34.154Z,20.11
2018-09-21T12:08:34.130Z,20.08
2018-09-21T12:10:27.273Z,20.12
2018-09-21T12:11:27.015Z,20.15
2018-09-21T12:13:19.946Z,20.25
2018-09-21T12:14:19.934Z,20.26
2018-09-21T12:16:14.434Z,20.27
2018-09-21T12:17:14.265Z,20.44
2018-09-21T12:19:07.657Z,20.55
2018-09-21T12:20:07.652Z,20.60
2018-09-21T12:22:01.079Z,20.85
2018-09-21T12:23:01.036Z,20.90
2018-09-21T12:24:53.992Z,20.98
2018-09-21T12:25:53.921Z,20.93
2018-09-21T12:27:47.373Z,20.98
2018-09-21T12:28:47.276Z,20.93
2018-09-21T12:30:40.705Z,21.08
2018-09-21T12:31:40.668Z,21.08
2018-09-21T12:33:34.069Z,21.14
2018-09-21T12:34:34.035Z,21.11
2018-09-21T12:36:27.009Z,20.95
2018-09-21T12:37:26.931Z,20.86
2018-09-21T12:39:20.331Z,20.74
2018-09-21T12:40:20.302Z,20.65
2018-09-21T12:42:13.737Z,20.55
2018-09-21T12:43:13.710Z,20.48
2018-09-21T12:45:07.112Z,20.23
2018-09-21T12:46:07.073Z,19.94
2018-09-21T12:48:00.090Z,19.70
2018-09-21T12:49:00.009Z,19.52
2018-09-21T12:50:53.382Z,19.52
2018-09-21T12:51:53.347Z,19.45
2018-09-21T12:53:46.251Z,19.30
2018-09-21T12:54:46.218Z,19.45
2018-09-21T12:56:39.163Z,19.27
2018-09-21T12:57:39.163Z,19.35
2018-09-21T12:59:32.037Z,19.60
2018-09-21T13:00:31.984Z,19.72
2018-09-21T13:02:25.397Z,19.75
2018-09-21T13:03:25.374Z,19.86
2018-09-21T13:05:18.400Z,19.81
2018-09-21T13:06:18.337Z,19.74
2018-09-21T13:08:11.660Z,19.71
2018-09-21T13:09:11.635Z,19.72
2018-09-21T13:11:04.544Z,19.77
2018-09-21T13:12:04.532Z,19.70
2018-09-21T13:13:57.441Z,19.71
2018-09-21T13:14:57.412Z,19.75
2018-09-21T13:16:50.795Z,19.78
2018-09-21T13:17:50.767Z,19.75
2018-09-21T13:19:44.162Z,19.75
2018-09-21T13:20:44.138Z,19.74
2018-09-21T13:22:37.070Z,19.62
2018-09-21T13:23:37.048Z,19.70
2018-09-21T13:25:30.423Z,19.64
2018-09-21T13:26:30.399Z,19.74
2018-09-21T13:28:23.793Z,19.75
2018-09-21T13:29:23.772Z,19.87
2018-09-21T13:31:17.171Z,19.74
2018-09-21T13:32:17.194Z,19.68
2018-09-21T13:34:10.175Z,19.74
2018-09-21T13:35:10.028Z,19.59
2018-09-21T13:37:03.485Z,19.67
2018-09-21T13:38:03.402Z,19.72
2018-09-21T13:39:56.368Z,19.70
2018-09-21T13:40:56.289Z,19.75
2018-09-21T13:42:50.257Z,19.63
2018-09-21T13:43:50.238Z,19.56
2018-09-21T13:45:43.688Z,19.56
2018-09-21T13:46:43.100Z,19.68
2018-09-21T13:48:36.022Z,19.56
2018-09-21T13:49:36.009Z,19.63
2018-09-21T13:51:29.407Z,19.45
2018-09-21T13:52:29.366Z,19.49
2018-09-21T13:54:22.784Z,19.35
2018-09-21T13:55:22.763Z,19.38
2018-09-21T13:57:16.166Z,19.49
2018-09-21T13:58:16.139Z,19.41
2018-09-21T14:00:09.075Z,19.49
2018-09-21T14:01:09.017Z,19.47
2018-09-21T14:03:01.985Z,19.47
2018-09-21T14:04:01.898Z,19.44
2018-09-21T14:05:55.307Z,19.45
2018-09-21T14:06:55.292Z,19.50
2018-09-21T14:08:48.679Z,19.37
2018-09-21T14:09:48.647Z,19.49
2018-09-21T14:11:41.550Z,19.37
2018-09-21T14:12:41.538Z,19.42
2018-09-21T14:14:34.428Z,19.37
2018-09-21T14:15:34.406Z,19.26
2018-09-21T14:17:27.824Z,19.32
2018-09-21T14:18:27.778Z,19.41
2018-09-21T14:20:21.219Z,19.24
2018-09-21T14:21:21.178Z,19.34
2018-09-21T14:23:14.548Z,19.30
2018-09-21T14:24:14.523Z,19.32
2018-09-21T14:26:07.921Z,19.31
2018-09-21T14:27:08.467Z,19.30
2018-09-21T14:29:01.358Z,19.37
2018-09-21T14:30:00.776Z,19.35
2018-09-21T14:31:54.204Z,19.41
2018-09-21T14:32:54.158Z,19.30
2018-09-21T14:34:47.166Z,19.32
2018-09-21T14:35:47.220Z,19.32
2018-09-21T14:37:40.534Z,19.34
2018-09-21T14:38:40.521Z,19.35
2018-09-21T14:40:33.419Z,19.34
2018-09-21T14:41:33.406Z,19.31
2018-09-21T14:43:26.804Z,19.31
2018-09-21T14:44:26.762Z,19.37
2018-09-21T14:46:20.350Z,19.31
2018-09-21T14:47:20.158Z,19.34
2018-09-21T14:49:13.046Z,19.34
2018-09-21T14:50:13.013Z,19.34
2018-09-21T14:52:05.916Z,19.31
2018-09-21T14:53:05.898Z,19.32
2018-09-21T14:54:58.808Z,19.24
2018-09-21T14:55:58.771Z,19.26
2018-09-21T14:57:52.186Z,19.30
2018-09-21T14:58:52.149Z,19.30
2018-09-21T15:00:45.064Z,19.35
2018-09-21T15:01:45.023Z,19.32
2018-09-21T15:03:37.929Z,19.35
2018-09-21T15:04:37.914Z,19.38
2018-09-21T15:06:30.808Z,19.27
2018-09-21T15:07:30.782Z,19.31
2018-09-21T15:09:24.757Z,19.30
2018-09-21T15:10:25.731Z,19.27
2018-09-21T15:12:18.759Z,19.31
2018-09-21T15:13:18.104Z,19.20
2018-09-21T15:15:11.523Z,19.17
2018-09-21T15:16:11.495Z,19.24
2018-09-21T15:18:04.951Z,19.05
2018-09-21T15:19:04.889Z,19.09
2018-09-21T15:20:58.423Z,19.07
2018-09-21T15:21:57.738Z,19.04
2018-09-21T15:23:50.640Z,19.01
2018-09-21T15:24:50.616Z,19.05
2018-09-21T15:26:43.531Z,19.07
2018-09-21T15:27:43.505Z,19.00
2018-09-21T15:29:36.912Z,18.85
2018-09-21T15:30:36.877Z,18.83
2018-09-21T15:32:30.317Z,18.70
2018-09-21T15:33:30.274Z,18.86
2018-09-21T15:35:23.637Z,18.83
2018-09-21T15:36:23.609Z,18.82
2018-09-21T15:38:16.548Z,18.91
2018-09-21T15:39:16.500Z,18.97
2018-09-21T15:41:09.873Z,18.91
2018-09-21T15:42:09.891Z,18.96
2018-09-21T15:44:03.241Z,18.70
2018-09-21T15:45:03.230Z,18.70
2018-09-21T15:46:56.614Z,18.70
2018-09-21T15:47:56.604Z,18.64
2018-09-21T15:49:49.987Z,18.54
2018-09-21T15:50:49.958Z,18.54
2018-09-21T15:52:42.906Z,18.61
2018-09-21T15:53:42.857Z,18.61
2018-09-21T15:55:36.244Z,18.64
2018-09-21T15:56:36.212Z,18.64
2018-09-21T15:58:29.600Z,18.66
2018-09-21T15:59:29.577Z,18.54
2018-09-21T16:01:22.517Z,18.60
2018-09-21T16:02:22.464Z,18.51
2018-09-21T16:04:15.360Z,18.57
2018-09-21T16:05:15.356Z,18.49
2018-09-21T16:07:08.751Z,18.36
2018-09-21T16:08:08.721Z,18.48
2018-09-21T16:10:01.598Z,18.38
2018-09-21T16:11:01.601Z,18.36
2018-09-21T16:12:54.489Z,18.28
2018-09-21T16:13:54.494Z,18.23
2018-09-21T16:15:47.373Z,18.27
2018-09-21T16:16:47.409Z,18.27
2018-09-21T16:18:40.751Z,18.31
2018-09-21T16:19:40.696Z,18.28
2018-09-21T16:21:34.110Z,18.27
2018-09-21T16:22:34.067Z,18.21
2018-09-21T16:24:27.591Z,18.11
2018-09-21T16:25:28.897Z,18.23
2018-09-21T16:27:19.859Z,18.06
2018-09-21T16:28:19.833Z,18.09
2018-09-21T16:30:13.073Z,18.12
2018-09-21T16:31:12.993Z,18.11
2018-09-21T16:33:06.503Z,18.05
2018-09-21T16:34:06.441Z,18.06
2018-09-21T16:36:00.127Z,18.09
2018-09-21T16:36:59.909Z,18.06
2018-09-21T16:38:53.376Z,18.05
2018-09-21T16:39:53.268Z,18.05
2018-09-21T16:41:46.179Z,18.03
2018-09-21T16:42:46.144Z,18.01
2018-09-21T16:44:39.145Z,17.99
2018-09-21T16:45:39.019Z,17.99
2018-09-21T16:47:31.936Z,17.94
2018-09-21T16:48:31.895Z,17.99
2018-09-21T16:50:25.387Z,17.90
2018-09-21T16:51:25.272Z,17.99
2018-09-21T16:53:18.301Z,17.91
2018-09-21T16:54:18.143Z,17.90
2018-09-21T16:56:11.554Z,17.88
2018-09-21T16:57:11.547Z,17.91
2018-09-21T16:59:05.422Z,17.91
2018-09-21T17:01:17.803Z,17.91
2018-09-21T17:02:17.786Z,17.83
2018-09-21T17:04:10.720Z,17.79
2018-09-21T17:05:10.648Z,17.86
2018-09-21T17:07:04.066Z,17.83
2018-09-21T17:08:04.027Z,17.90
2018-09-21T17:09:56.948Z,18.15
2018-09-21T17:10:56.897Z,18.12
2018-09-21T17:12:49.771Z,18.12
2018-09-21T17:13:49.766Z,18.03
2018-09-21T17:15:43.167Z,17.99
2018-09-21T17:16:43.167Z,17.94
2018-09-21T17:18:36.531Z,17.78
2018-09-21T17:19:36.509Z,17.76
2018-09-21T17:21:29.471Z,17.63
2018-09-21T17:22:29.387Z,17.71
2018-09-21T17:24:22.285Z,17.65
2018-09-21T17:25:22.260Z,17.56
2018-09-21T17:27:15.233Z,17.57
2018-09-21T17:28:15.159Z,17.46
2018-09-21T17:30:08.036Z,17.38
2018-09-21T17:31:08.038Z,17.38
2018-09-21T17:33:00.984Z,17.32
2018-09-21T17:34:00.900Z,17.30
2018-09-21T17:35:54.437Z,17.27
2018-09-21T17:36:54.720Z,17.24
2018-09-21T17:38:47.569Z,17.14
2018-09-21T17:39:47.451Z,17.17
2018-09-21T17:41:40.351Z,17.20
2018-09-21T17:42:40.343Z,17.07
2018-09-21T17:44:33.763Z,17.13
2018-09-21T17:45:33.728Z,17.10
2018-09-21T17:47:27.315Z,17.06
2018-09-21T17:48:27.062Z,17.01
2018-09-21T17:50:21.448Z,16.99
2018-09-21T17:51:21.449Z,16.97
2018-09-21T17:53:15.007Z,16.97
2018-09-21T17:54:14.940Z,16.97
2018-09-21T17:56:08.241Z,16.97
2018-09-21T17:57:08.185Z,16.79
2018-09-21T17:59:01.583Z,16.94
2018-09-21T18:00:01.543Z,16.95
2018-09-21T18:01:55.069Z,16.80
2018-09-21T18:02:54.651Z,16.72
2018-09-21T18:04:47.790Z,16.69
2018-09-21T18:05:47.759Z,16.65
2018-09-21T18:07:40.795Z,16.69
2018-09-21T18:08:40.639Z,16.55
2018-09-21T18:10:34.096Z,16.58
2018-09-21T18:11:34.001Z,16.57
2018-09-21T18:13:27.398Z,16.47
2018-09-21T18:14:27.365Z,16.46
2018-09-21T18:16:21.339Z,16.36
2018-09-21T18:17:20.984Z,16.29
2018-09-21T18:19:15.129Z,16.36
2018-09-21T18:20:15.109Z,16.37
2018-09-21T18:22:08.604Z,16.29
2018-09-21T18:23:08.289Z,16.24
2018-09-21T18:25:01.172Z,16.33
2018-09-21T18:26:01.171Z,16.28
2018-09-21T18:27:54.595Z,16.25
2018-09-21T18:28:54.525Z,16.29
2018-09-21T18:30:47.883Z,16.24
2018-09-21T18:31:47.867Z,16.09
2018-09-21T18:33:41.263Z,16.14
2018-09-21T18:34:41.228Z,16.06
2018-09-21T18:36:34.645Z,16.16